Time;durP1;ratioP1;P1;durP2;ratioP2;P2;SDS_P1;SDS_P2;PMS_P1;PMS_P2;Temp;Humidity;BMP_temperature;BMP_pressure;BME280_temperature;BME280_humidity;BME280_pressure;Samples;Min_cycle;Max_cycle;Signal;HPM_P1;HPM_P2
2024/04/17 00:01:03;;;;;;;1.83;1.27;;;6.80;83.80;;;;;;5404740;26;20249;-72
2024/04/17 00:03:28;;;;;;;4.40;1.20;;;6.70;84.40;;;;;;5405186;26;20579;-72
2024/04/17 00:05:54;;;;;;;1.80;1.20;;;6.50;84.60;;;;;;5401953;26;21094;-72
2024/04/17 00:08:20;;;;;;;1.43;0.93;;;6.30;85.30;;;;;;5406846;26;20234;-72
2024/04/17 00:10:45;;;;;;;1.60;1.00;;;6.20;84.90;;;;;;5402215;26;20249;-71
2024/04/17 00:13:11;;;;;;;1.37;1.10;;;6.20;85.90;;;;;;5402273;26;20245;-72
2024/04/17 00:15:36;;;;;;;1.60;1.10;;;6.10;86.20;;;;;;5398393;26;20277;-71
2024/04/17 00:18:02;;;;;;;1.73;1.23;;;6.10;86.30;;;;;;5411863;26;20311;-72
2024/04/17 00:20:28;;;;;;;1.70;1.30;;;6.10;86.30;;;;;;5411972;26;20317;-70
2024/04/17 00:22:53;;;;;;;2.60;1.20;;;6.00;86.50;;;;;;5406029;26;20242;-73
2024/04/17 00:25:19;;;;;;;1.67;1.10;;;5.90;86.50;;;;;;5409899;26;20249;-72
2024/04/17 00:27:44;;;;;;;1.83;1.20;;;5.80;86.90;;;;;;5410132;26;20233;-70
2024/04/17 00:30:10;;;;;;;1.70;1.20;;;5.70;87.10;;;;;;5408526;26;20738;-71
2024/04/17 00:32:35;;;;;;;2.33;1.20;;;5.80;87.60;;;;;;5410239;26;20352;-71
2024/04/17 00:35:01;;;;;;;2.03;1.90;;;5.80;87.60;;;;;;5385044;26;20822;-70
2024/04/17 00:37:26;;;;;;;3.17;1.80;;;5.80;87.70;;;;;;5408717;26;20242;-72
2024/04/17 00:39:52;;;;;;;2.47;1.30;;;5.90;88.30;;;;;;5410131;26;20233;-71
2024/04/17 00:42:17;;;;;;;3.23;1.30;;;5.90;88.10;;;;;;5410235;26;20268;-72
2024/04/17 00:44:43;;;;;;;2.30;1.47;;;5.90;88.30;;;;;;5408243;26;20245;-73
2024/04/17 00:47:10;;;;;;;3.50;1.33;;;5.90;88.40;;;;;;5411544;26;20277;-72
2024/04/17 00:49:36;;;;;;;5.00;1.70;;;5.90;88.40;;;;;;5405722;26;20238;-73
2024/04/17 00:52:02;;;;;;;2.97;1.70;;;5.90;88.70;;;;;;5413360;26;21085;-73
2024/04/17 00:54:28;;;;;;;2.60;1.53;;;5.90;88.70;;;;;;5412275;26;20279;-73
2024/04/17 00:56:55;;;;;;;2.30;1.77;;;5.90;88.90;;;;;;5412659;26;20475;-71
2024/04/17 00:59:22;;;;;;;4.80;1.80;;;5.90;88.90;;;;;;5410208;26;20534;-70
2024/04/17 01:01:47;;;;;;;7.67;1.90;;;6.00;88.70;;;;;;5413865;26;20479;-71
2024/04/17 01:04:13;;;;;;;3.33;1.60;;;6.00;88.70;;;;;;5421150;26;20593;-72
2024/04/17 01:06:41;;;;;;;2.80;1.73;;;6.00;88.70;;;;;;5420760;26;20296;-71
2024/04/17 01:09:07;;;;;;;2.10;1.40;;;6.00;88.60;;;;;;5423009;26;20276;-71
2024/04/17 01:11:40;;;;;;;1.70;1.30;;;6.00;88.70;;;;;;5417686;26;20487;-71
2024/04/17 01:14:06;;;;;;;3.10;1.87;;;6.00;88.60;;;;;;5411159;26;20733;-72
2024/04/17 01:16:33;;;;;;;2.10;1.40;;;6.00;88.70;;;;;;5415437;26;20526;-72
2024/04/17 01:18:59;;;;;;;3.53;1.70;;;6.00;89.20;;;;;;5415383;26;21116;-71
2024/04/17 01:21:25;;;;;;;2.63;1.73;;;6.10;89.30;;;;;;5414067;26;20491;-73
2024/04/17 01:23:52;;;;;;;2.07;1.37;;;6.00;89.30;;;;;;5416195;26;20471;-71
2024/04/17 01:26:19;;;;;;;2.77;1.80;;;6.00;89.60;;;;;;5416524;26;20237;-73
2024/04/17 01:28:45;;;;;;;4.63;1.90;;;6.00;88.30;;;;;;5404916;26;20582;-72
2024/04/17 01:31:10;;;;;;;2.40;1.37;;;6.00;88.30;;;;;;5416657;26;20490;-69
2024/04/17 01:33:37;;;;;;;3.27;2.13;;;6.10;88.30;;;;;;5425372;26;20513;-72
2024/04/17 01:36:04;;;;;;;3.17;1.90;;;6.10;88.40;;;;;;5421178;26;20281;-72
2024/04/17 01:38:29;;;;;;;2.30;1.60;;;6.10;88.60;;;;;;5415011;26;20578;-72
2024/04/17 01:40:55;;;;;;;3.97;1.90;;;6.10;88.60;;;;;;5388171;26;20483;-70
2024/04/17 01:43:21;;;;;;;2.80;1.63;;;6.00;87.70;;;;;;5416015;26;20870;-72
2024/04/17 01:45:47;;;;;;;2.83;2.00;;;5.90;87.70;;;;;;5416784;26;20525;-72
2024/04/17 01:48:13;;;;;;;2.37;1.70;;;5.80;87.70;;;;;;5412870;26;20250;-70
2024/04/17 01:50:38;;;;;;;3.30;2.07;;;5.80;88.30;;;;;;5414856;26;20558;-70
2024/04/17 01:53:04;;;;;;;4.43;1.83;;;5.80;88.30;;;;;;5413354;26;20295;-73
2024/04/17 01:55:29;;;;;;;4.47;2.43;;;5.90;88.70;;;;;;5414146;26;20245;-71
2024/04/17 01:57:55;;;;;;;4.30;2.50;;;5.90;88.70;;;;;;5407048;26;20238;-72
2024/04/17 02:00:21;;;;;;;8.13;2.80;;;6.00;89.00;;;;;;5420289;26;20237;-75
2024/04/17 02:02:46;;;;;;;4.30;2.40;;;6.00;89.00;;;;;;5419322;26;20249;-71
2024/04/17 02:05:12;;;;;;;4.80;2.67;;;6.00;89.20;;;;;;5414991;26;20282;-73
2024/04/17 02:07:38;;;;;;;3.10;2.20;;;6.10;89.30;;;;;;5404578;26;20242;-71
2024/04/17 02:10:04;;;;;;;3.07;2.10;;;6.10;89.00;;;;;;5416966;26;20527;-72
2024/04/17 02:12:29;;;;;;;3.10;2.43;;;6.10;89.20;;;;;;5397691;26;20743;-70
2024/04/17 02:14:55;;;;;;;3.33;2.43;;;6.10;89.30;;;;;;5412982;26;20238;-71
2024/04/17 02:17:21;;;;;;;2.30;1.80;;;6.10;89.00;;;;;;5417554;26;20249;-70
2024/04/17 02:19:46;;;;;;;3.60;2.20;;;6.10;89.00;;;;;;5415805;26;20738;-73
2024/04/17 02:22:12;;;;;;;3.77;2.27;;;6.10;89.00;;;;;;5407815;26;20573;-72
2024/04/17 02:24:37;;;;;;;4.27;2.23;;;6.10;89.00;;;;;;5415780;26;20288;-72
2024/04/17 02:27:03;;;;;;;3.17;2.00;;;6.10;88.70;;;;;;5416346;26;20279;-71
2024/04/17 02:29:29;;;;;;;4.30;2.20;;;6.10;88.60;;;;;;5419269;26;20354;-73
2024/04/17 02:31:55;;;;;;;4.27;2.60;;;6.10;88.60;;;;;;5405798;26;20237;-72
2024/04/17 02:34:21;;;;;;;3.60;2.23;;;6.10;88.70;;;;;;5407801;26;20524;-72
2024/04/17 02:36:47;;;;;;;3.90;2.50;;;6.20;88.60;;;;;;5413963;26;20346;-73
2024/04/17 02:39:12;;;;;;;6.70;2.57;;;6.20;88.40;;;;;;5414125;26;20469;-73
2024/04/17 02:41:38;;;;;;;3.70;2.40;;;6.20;88.40;;;;;;5406475;26;20259;-71
2024/04/17 02:44:05;;;;;;;4.73;3.00;;;6.30;88.40;;;;;;5403162;26;20276;-72
2024/04/17 02:46:31;;;;;;;3.73;2.40;;;6.30;88.40;;;;;;5414641;26;20245;-71
2024/04/17 02:48:57;;;;;;;4.07;2.63;;;6.30;88.40;;;;;;5422897;26;20562;-73
2024/04/17 02:51:23;;;;;;;5.60;2.50;;;6.30;88.40;;;;;;5415488;26;20472;-71
2024/04/17 02:53:49;;;;;;;2.83;2.17;;;6.40;88.40;;;;;;5418313;26;20225;-74
2024/04/17 02:56:15;;;;;;;4.93;2.70;;;6.40;88.30;;;;;;5416309;26;20495;-70
2024/04/17 02:58:40;;;;;;;3.57;2.17;;;6.40;88.10;;;;;;5415012;26;20284;-69
2024/04/17 03:01:13;;;;;;;3.27;2.37;;;6.40;87.80;;;;;;5407429;26;20238;-72
2024/04/17 03:03:39;;;;;;;3.80;2.43;;;6.40;87.60;;;;;;5409827;26;20280;-72
2024/04/17 03:06:05;;;;;;;2.73;2.03;;;6.40;87.60;;;;;;5404619;26;20467;-70
2024/04/17 03:08:30;;;;;;;3.20;2.40;;;6.30;87.40;;;;;;5419871;26;20229;-72
2024/04/17 03:11:00;;;;;;;3.87;2.23;;;6.30;87.40;;;;;;5417567;26;20583;-70
2024/04/17 03:13:26;;;;;;;6.10;1.80;;;6.40;87.30;;;;;;5411886;26;20277;-72
2024/04/17 03:15:51;;;;;;;3.23;2.00;;;6.30;86.90;;;;;;5418051;26;20456;-72
2024/04/17 03:18:17;;;;;;;3.03;2.00;;;6.40;86.90;;;;;;5418599;26;20280;-72
2024/04/17 03:20:42;;;;;;;3.63;1.70;;;6.40;87.00;;;;;;5415471;26;20234;-71
2024/04/17 03:23:08;;;;;;;3.73;1.90;;;6.40;86.80;;;;;;5419097;26;20241;-71
2024/04/17 03:25:33;;;;;;;5.13;2.47;;;6.30;86.50;;;;;;5423691;26;20280;-70
2024/04/17 03:27:59;;;;;;;3.80;2.37;;;6.10;85.60;;;;;;5420113;26;20273;-71
2024/04/17 03:30:25;;;;;;;4.60;3.13;;;5.90;84.90;;;;;;5426089;26;20242;-71
2024/04/17 03:32:51;;;;;;;3.97;2.30;;;5.70;85.20;;;;;;5414649;26;20519;-70
2024/04/17 03:35:16;;;;;;;5.57;3.63;;;5.80;85.60;;;;;;5412859;26;20277;-71
2024/04/17 03:37:42;;;;;;;6.20;4.00;;;5.80;85.90;;;;;;5405960;26;20242;-71
2024/04/17 03:40:08;;;;;;;7.17;4.30;;;5.80;86.50;;;;;;5414374;26;20751;-73
2024/04/17 03:42:34;;;;;;;6.50;3.80;;;5.70;86.90;;;;;;5411482;26;20241;-71
2024/04/17 03:44:59;;;;;;;8.27;4.60;;;5.70;87.10;;;;;;5409824;26;20565;-71
2024/04/17 03:47:25;;;;;;;7.50;4.13;;;5.80;87.10;;;;;;5418844;26;20249;-70
2024/04/17 03:49:50;;;;;;;7.47;4.30;;;5.70;87.30;;;;;;5412847;26;20632;-71
2024/04/17 03:52:16;;;;;;;5.93;4.10;;;5.70;87.30;;;;;;5411048;26;20288;-74
2024/04/17 03:54:42;;;;;;;8.30;4.50;;;5.80;87.30;;;;;;5410332;26;20315;-71
2024/04/17 03:57:07;;;;;;;9.70;5.10;;;5.70;87.30;;;;;;5406594;26;20249;-73
2024/04/17 03:59:33;;;;;;;7.20;4.53;;;5.70;87.30;;;;;;5416890;26;20225;-73
2024/04/17 04:01:58;;;;;;;6.57;4.23;;;5.70;87.40;;;;;;5415283;26;20245;-70
2024/04/17 04:04:24;;;;;;;7.63;4.30;;;5.80;87.30;;;;;;5410720;26;20691;-71
2024/04/17 04:06:50;;;;;;;8.10;4.70;;;5.80;87.00;;;;;;5413689;26;20271;-71
2024/04/17 04:09:15;;;;;;;9.63;5.27;;;5.70;87.10;;;;;;5404844;26;20280;-73
2024/04/17 04:11:41;;;;;;;8.63;5.17;;;5.70;87.30;;;;;;5404338;26;20279;-72
2024/04/17 04:14:07;;;;;;;12.00;5.37;;;5.60;87.10;;;;;;5411372;26;20277;-72
2024/04/17 04:16:33;;;;;;;7.87;3.93;;;5.60;87.30;;;;;;5411379;26;20467;-71
2024/04/17 04:18:59;;;;;;;9.60;5.00;;;5.60;87.40;;;;;;5374420;26;20382;-73
2024/04/17 04:21:25;;;;;;;6.83;4.10;;;5.70;87.60;;;;;;5411632;26;20241;-70
2024/04/17 04:23:50;;;;;;;5.90;3.27;;;5.60;87.60;;;;;;5414089;26;20463;-70
2024/04/17 04:26:16;;;;;;;9.00;4.57;;;5.60;87.40;;;;;;5383755;26;20238;-72
2024/04/17 04:28:42;;;;;;;5.67;3.33;;;5.60;87.30;;;;;;5413988;26;20250;-73
2024/04/17 04:31:07;;;;;;;7.57;3.37;;;5.50;87.30;;;;;;5411389;26;20731;-72
2024/04/17 04:33:33;;;;;;;6.93;3.80;;;5.50;87.30;;;;;;5376694;26;20226;-72
2024/04/17 04:35:58;;;;;;;8.67;4.53;;;5.60;87.30;;;;;;5417673;26;20246;-72
2024/04/17 04:38:25;;;;;;;6.60;4.07;;;5.60;87.00;;;;;;5407496;26;20304;-73
2024/04/17 04:40:50;;;;;;;6.60;3.70;;;5.60;87.00;;;;;;5409055;26;20284;-71
2024/04/17 04:43:16;;;;;;;6.90;3.93;;;5.60;87.10;;;;;;5406458;26;20467;-73
2024/04/17 04:45:42;;;;;;;7.73;5.03;;;5.50;87.10;;;;;;5415054;26;20234;-72
2024/04/17 04:48:07;;;;;;;8.23;4.70;;;5.50;87.10;;;;;;5408039;26;20277;-74
2024/04/17 04:50:33;;;;;;;9.27;3.80;;;5.50;87.60;;;;;;5415197;26;20344;-70
2024/04/17 04:52:59;;;;;;;6.60;4.60;;;5.50;87.70;;;;;;5415732;26;20512;-73
2024/04/17 04:55:24;;;;;;;6.97;4.10;;;5.50;87.60;;;;;;5419245;26;20951;-72
2024/04/17 04:57:50;;;;;;;9.50;4.80;;;5.40;87.40;;;;;;5408989;26;20250;-71
2024/04/17 05:00:16;;;;;;;8.00;4.47;;;5.40;87.70;;;;;;5409566;26;20229;-72
2024/04/17 05:02:41;;;;;;;7.00;3.83;;;5.40;87.80;;;;;;5411822;26;20706;-72
2024/04/17 05:05:07;;;;;;;7.53;4.27;;;5.40;88.00;;;;;;5406093;26;20311;-70
2024/04/17 05:07:34;;;;;;;8.10;3.67;;;5.50;88.00;;;;;;5413609;26;20238;-71
2024/04/17 05:10:00;;;;;;;9.23;4.40;;;5.50;88.00;;;;;;5414994;26;20245;-72
2024/04/17 05:12:26;;;;;;;7.10;3.87;;;5.60;88.00;;;;;;5409101;26;20473;-71
2024/04/17 05:14:52;;;;;;;8.33;4.20;;;5.60;87.80;;;;;;5412214;26;20233;-71
2024/04/17 05:17:17;;;;;;;7.67;5.13;;;5.60;87.80;;;;;;5413906;26;20242;-71
2024/04/17 05:19:43;;;;;;;6.93;4.70;;;5.70;87.70;;;;;;5415126;26;20595;-71
2024/04/17 05:22:08;;;;;;;9.77;4.93;;;5.70;87.70;;;;;;5406624;26;20249;-72
2024/04/17 05:24:34;;;;;;;8.50;4.60;;;5.70;87.80;;;;;;5407532;26;20342;-72
2024/04/17 05:27:00;;;;;;;8.17;5.10;;;5.80;88.10;;;;;;5415709;26;20272;-71
2024/04/17 05:29:25;;;;;;;7.50;4.67;;;5.80;88.60;;;;;;5410039;26;20292;-76
2024/04/17 05:31:51;;;;;;;11.00;4.47;;;5.90;88.70;;;;;;5406043;26;20241;-73
2024/04/17 05:34:18;;;;;;;9.23;5.20;;;5.90;88.70;;;;;;5409629;26;20560;-73
2024/04/17 05:36:43;;;;;;;9.60;5.10;;;5.80;88.40;;;;;;5402897;26;20237;-74
2024/04/17 05:39:10;;;;;;;7.93;4.40;;;5.90;88.30;;;;;;5406668;26;20827;-74
2024/04/17 05:41:35;;;;;;;8.53;5.23;;;5.80;88.00;;;;;;5402304;26;20241;-74
2024/04/17 05:44:01;;;;;;;10.07;5.40;;;5.80;87.70;;;;;;5409707;26;20518;-74
2024/04/17 05:46:27;;;;;;;9.10;5.07;;;5.90;88.30;;;;;;5402933;26;20329;-74
2024/04/17 05:48:54;;;;;;;8.23;5.00;;;5.90;87.70;;;;;;5416304;26;20281;-73
2024/04/17 05:51:22;;;;;;;10.90;5.00;;;5.90;88.10;;;;;;5417183;26;20986;-75
2024/04/17 05:53:47;;;;;;;8.93;5.27;;;5.90;88.30;;;;;;5414617;26;20825;-74
2024/04/17 05:56:14;;;;;;;11.47;6.50;;;6.00;88.30;;;;;;5412310;26;20459;-71
2024/04/17 05:58:40;;;;;;;11.17;6.00;;;6.00;88.30;;;;;;5412577;26;20726;-72
2024/04/17 06:01:06;;;;;;;13.33;6.77;;;6.00;88.10;;;;;;5404640;26;20564;-72
2024/04/17 06:03:31;;;;;;;11.83;6.50;;;6.10;88.30;;;;;;5412094;26;20293;-73
2024/04/17 06:05:57;;;;;;;12.40;7.40;;;6.20;88.40;;;;;;5403404;26;20281;-72
2024/04/17 06:08:23;;;;;;;16.70;9.00;;;6.20;88.40;;;;;;5411149;26;20651;-72
2024/04/17 06:10:49;;;;;;;14.80;7.57;;;6.20;88.30;;;;;;5402110;26;20739;-72
2024/04/17 06:13:15;;;;;;;17.40;8.30;;;6.30;88.40;;;;;;5409747;26;20585;-73
2024/04/17 06:15:41;;;;;;;17.27;8.40;;;6.30;88.40;;;;;;5405877;26;20630;-73
2024/04/17 06:18:07;;;;;;;15.47;7.63;;;6.30;87.80;;;;;;5405868;26;20475;-72
2024/04/17 06:20:33;;;;;;;17.03;8.47;;;6.40;87.70;;;;;;5405994;26;20235;-72
2024/04/17 06:23:00;;;;;;;17.80;9.53;;;6.50;87.40;;;;;;5414885;26;20245;-72
2024/04/17 06:25:26;;;;;;;17.53;7.47;;;6.50;87.30;;;;;;5423734;26;20563;-72
2024/04/17 06:27:51;;;;;;;16.93;8.63;;;6.60;87.30;;;;;;5426822;26;20555;-72
2024/04/17 06:30:17;;;;;;;15.53;8.30;;;6.70;87.30;;;;;;5414265;26;20241;-72
2024/04/17 06:32:43;;;;;;;16.07;8.77;;;6.70;87.10;;;;;;5404971;26;20288;-72
2024/04/17 06:35:08;;;;;;;15.23;7.60;;;6.70;86.80;;;;;;5410040;26;20229;-73
2024/04/17 06:37:34;;;;;;;15.47;7.37;;;6.60;86.20;;;;;;5404549;26;20302;-73
2024/04/17 06:39:59;;;;;;;16.30;8.40;;;6.60;86.00;;;;;;5407475;26;20264;-73
2024/04/17 06:42:25;;;;;;;16.50;8.00;;;6.70;86.20;;;;;;5412122;26;20257;-72
2024/04/17 06:44:50;;;;;;;13.23;7.83;;;6.80;86.00;;;;;;5409391;26;20245;-72
2024/04/17 06:47:17;;;;;;;16.80;7.53;;;6.80;85.60;;;;;;5418253;26;20341;-74
2024/04/17 06:49:47;;;;;;;14.10;7.93;;;6.60;85.50;;;;;;5411164;26;20633;-73
2024/04/17 06:52:12;;;;;;;12.63;6.43;;;6.50;85.60;;;;;;5411027;26;20586;-73
2024/04/17 06:54:38;;;;;;;11.53;7.00;;;6.60;85.90;;;;;;5409477;26;20476;-71
2024/04/17 06:57:03;;;;;;;15.10;7.97;;;6.70;86.20;;;;;;5408057;26;20710;-72
2024/04/17 06:59:29;;;;;;;17.03;8.53;;;6.70;86.30;;;;;;5402432;26;20552;-73
2024/04/17 07:01:55;;;;;;;15.03;8.37;;;6.70;86.50;;;;;;5406906;26;20563;-72
2024/04/17 07:04:21;;;;;;;20.10;10.40;;;6.80;86.80;;;;;;5404228;26;20238;-74
2024/04/17 07:06:46;;;;;;;13.53;6.90;;;6.80;86.80;;;;;;5410767;26;20245;-73
2024/04/17 07:09:12;;;;;;;13.47;7.00;;;6.80;86.80;;;;;;5407112;26;20905;-72
2024/04/17 07:11:38;;;;;;;11.10;6.50;;;6.80;86.90;;;;;;5406180;26;20245;-73
2024/04/17 07:14:04;;;;;;;15.50;7.60;;;6.80;86.50;;;;;;5403048;26;20254;-72
2024/04/17 07:16:30;;;;;;;13.37;7.20;;;6.70;86.30;;;;;;5403158;26;20288;-73
2024/04/17 07:18:56;;;;;;;11.40;6.57;;;6.80;86.80;;;;;;5370885;26;20463;-73
2024/04/17 07:21:21;;;;;;;25.07;6.07;;;6.80;86.90;;;;;;5403605;26;20730;-72
2024/04/17 07:23:47;;;;;;;10.03;4.83;;;6.50;85.90;;;;;;5401581;26;20336;-73
2024/04/17 07:26:12;;;;;;;12.23;6.07;;;6.70;85.70;;;;;;5409492;26;20241;-73
2024/04/17 07:28:38;;;;;;;10.83;5.50;;;6.70;85.70;;;;;;5415568;26;20237;-71
2024/04/17 07:31:04;;;;;;;12.23;5.50;;;6.60;85.70;;;;;;5416273;26;20249;-71
2024/04/17 07:33:29;;;;;;;10.60;4.80;;;6.70;86.00;;;;;;5403107;26;20241;-73
2024/04/17 07:35:59;;;;;;;6.00;3.53;;;6.60;85.70;;;;;;5436096;26;20487;-71
2024/04/17 07:38:24;;;;;;;6.73;3.70;;;6.60;85.00;;;;;;5426582;26;20271;-72
2024/04/17 07:41:00;;;;;;;5.97;3.90;;;6.50;84.70;;;;;;5432302;26;20526;-73
2024/04/17 07:43:30;;;;;;;8.10;4.60;;;6.50;84.40;;;;;;5421005;26;20253;-72
2024/04/17 07:45:57;;;;;;;8.33;4.80;;;6.40;84.30;;;;;;5400383;26;20475;-72
2024/04/17 07:48:22;;;;;;;8.60;4.67;;;6.30;84.70;;;;;;5430067;26;20515;-72
2024/04/17 07:50:48;;;;;;;7.83;4.40;;;6.40;84.90;;;;;;5432463;26;20468;-71
2024/04/17 07:53:13;;;;;;;9.27;5.27;;;6.40;85.30;;;;;;5424427;26;20292;-71
2024/04/17 07:55:39;;;;;;;9.90;5.50;;;6.40;85.20;;;;;;5432148;26;20245;-71
2024/04/17 07:58:05;;;;;;;11.73;5.40;;;6.50;85.60;;;;;;5423139;26;20242;-70
2024/04/17 08:00:31;;;;;;;13.13;6.03;;;6.60;85.90;;;;;;5429046;26;20233;-71
2024/04/17 08:02:58;;;;;;;10.33;5.50;;;6.70;86.00;;;;;;5427265;26;20288;-72
2024/04/17 08:05:23;;;;;;;12.07;6.13;;;6.80;86.20;;;;;;5423147;26;20509;-72
2024/04/17 08:07:49;;;;;;;13.87;7.07;;;6.80;86.20;;;;;;5416241;26;20465;-69
2024/04/17 08:10:16;;;;;;;11.80;6.20;;;6.70;85.70;;;;;;5420182;26;20276;-69
2024/04/17 08:12:41;;;;;;;18.93;7.43;;;6.70;86.00;;;;;;5424876;26;20276;-72
2024/04/17 08:15:12;;;;;;;14.20;8.00;;;6.60;86.20;;;;;;5427649;26;20471;-72
2024/04/17 08:17:38;;;;;;;18.30;8.37;;;6.50;86.50;;;;;;5425541;26;20238;-72
2024/04/17 08:20:04;;;;;;;15.80;7.90;;;6.70;86.90;;;;;;5429669;26;20532;-72
2024/04/17 08:22:30;;;;;;;18.23;8.70;;;6.70;86.80;;;;;;5422235;26;20535;-71
2024/04/17 08:24:57;;;;;;;17.53;7.70;;;6.90;86.80;;;;;;5429890;26;20463;-71
2024/04/17 08:27:22;;;;;;;15.90;7.70;;;7.00;86.20;;;;;;5433093;26;20225;-71
2024/04/17 08:29:48;;;;;;;14.17;7.60;;;7.00;85.90;;;;;;5431139;26;20522;-72
2024/04/17 08:32:15;;;;;;;14.87;7.77;;;6.90;85.50;;;;;;5448334;21;20311;-76
2024/04/17 08:34:41;;;;;;;16.07;7.80;;;7.10;85.70;;;;;;5452701;26;20275;-78
2024/04/17 08:37:06;;;;;;;14.30;7.90;;;7.40;85.90;;;;;;5460692;26;20466;-78
2024/04/17 08:39:32;;;;;;;14.90;7.53;;;7.50;85.90;;;;;;5460935;26;20229;-78
2024/04/17 08:42:06;;;;;;;14.00;7.33;;;7.60;84.90;;;;;;5442290;26;20240;-78
2024/04/17 08:44:39;;;;;;;15.13;7.93;;;7.70;84.00;;;;;;5458240;26;20275;-78
2024/04/17 08:47:06;;;;;;;18.40;8.00;;;8.00;84.00;;;;;;5458110;26;20465;-77
2024/04/17 08:49:33;;;;;;;17.30;8.67;;;8.20;83.70;;;;;;5449248;26;20591;-78
2024/04/17 08:52:02;;;;;;;12.73;7.60;;;8.30;82.80;;;;;;5446730;26;20481;-78
2024/04/17 08:54:30;;;;;;;14.30;7.93;;;8.30;81.80;;;;;;5448494;26;20507;-80
2024/04/17 08:56:56;;;;;;;11.47;7.90;;;8.10;81.10;;;;;;5463651;26;20454;-76
2024/04/17 08:59:22;;;;;;;13.33;8.20;;;8.10;81.40;;;;;;5464532;26;20473;-77
2024/04/17 09:01:49;;;;;;;13.40;7.90;;;8.20;81.50;;;;;;5443092;26;20468;-79
2024/04/17 09:04:17;;;;;;;13.10;7.30;;;8.10;81.50;;;;;;5448134;26;20271;-80
2024/04/17 09:06:43;;;;;;;14.07;7.60;;;7.80;80.50;;;;;;5446301;26;20474;-80
2024/04/17 09:09:11;;;;;;;15.33;7.93;;;7.50;81.40;;;;;;5439786;26;20471;-78
2024/04/17 09:11:38;;;;;;;16.20;8.60;;;7.50;82.20;;;;;;5443342;26;20547;-78
2024/04/17 09:14:03;;;;;;;14.57;7.10;;;7.50;83.60;;;;;;5453317;26;21010;-78
2024/04/17 09:16:29;;;;;;;9.20;5.80;;;7.30;84.30;;;;;;5450296;26;20466;-77
2024/04/17 09:18:54;;;;;;;11.17;6.13;;;7.00;83.10;;;;;;5444330;26;20287;-78
2024/04/17 09:21:20;;;;;;;10.37;6.33;;;6.90;82.80;;;;;;5435737;26;20663;-77
2024/04/17 09:23:46;;;;;;;11.13;6.80;;;7.00;82.80;;;;;;5457369;26;20867;-77
2024/04/17 09:26:17;;;;;;;12.30;7.07;;;7.00;83.80;;;;;;5451861;26;20344;-77
2024/04/17 09:28:43;;;;;;;13.23;6.87;;;6.90;83.30;;;;;;5422785;26;20729;-76
2024/04/17 09:31:10;;;;;;;13.97;8.37;;;6.70;82.80;;;;;;5444602;26;20621;-78
2024/04/17 09:33:43;;;;;;;11.90;7.40;;;6.50;83.30;;;;;;5448840;26;20466;-77
2024/04/17 09:36:09;;;;;;;15.30;8.30;;;6.60;84.30;;;;;;5439358;26;20760;-76
2024/04/17 09:38:35;;;;;;;17.37;7.43;;;6.50;83.70;;;;;;5452397;26;20466;-77
2024/04/17 09:41:01;;;;;;;13.97;7.27;;;6.30;83.60;;;;;;5431888;26;20799;-77
2024/04/17 09:43:27;;;;;;;13.43;7.77;;;6.40;83.80;;;;;;5439537;26;20265;-77
2024/04/17 09:45:59;;;;;;;14.43;8.60;;;6.60;84.00;;;;;;5449951;26;20500;-77
2024/04/17 09:48:29;;;;;;;19.43;8.40;;;6.70;84.30;;;;;;5441162;26;20597;-77
2024/04/17 09:51:03;;;;;;;18.87;8.57;;;6.60;84.40;;;;;;5442797;26;20461;-76
2024/04/17 09:53:36;;;;;;;15.63;8.60;;;6.60;84.70;;;;;;5432803;26;20552;-78
2024/04/17 09:56:04;;;;;;;17.17;10.37;;;6.60;85.00;;;;;;5444869;26;20540;-76
2024/04/17 09:58:34;;;;;;;15.67;9.23;;;6.60;85.50;;;;;;5443642;26;20504;-78
2024/04/17 10:01:02;;;;;;;16.70;9.87;;;6.60;85.70;;;;;;5446285;26;20834;-77
2024/04/17 10:03:31;;;;;;;19.77;10.17;;;6.50;86.00;;;;;;5441815;26;20462;-78
2024/04/17 10:06:17;;;;;;;16.90;9.37;;;6.50;85.90;;;;;;5440115;26;20950;-78
2024/04/17 10:08:44;;;;;;;12.83;8.00;;;6.70;86.30;;;;;;5444304;26;20469;-78
2024/04/17 10:11:10;;;;;;;13.87;7.37;;;6.60;86.50;;;;;;5445042;26;20831;-78
2024/04/17 10:13:36;;;;;;;14.93;7.53;;;6.70;85.30;;;;;;5439455;26;20525;-77
2024/04/17 10:16:01;;;;;;;14.97;7.00;;;6.70;84.40;;;;;;5445359;26;21012;-78
2024/04/17 10:18:35;;;;;;;11.50;6.97;;;6.70;83.10;;;;;;5444798;26;20237;-78
2024/04/17 10:21:01;;;;;;;15.83;7.40;;;6.80;82.40;;;;;;5450472;26;20233;-78
2024/04/17 10:23:26;;;;;;;10.50;7.27;;;7.00;82.20;;;;;;5438908;26;20551;-77
2024/04/17 10:25:57;;;;;;;13.10;7.93;;;7.10;82.50;;;;;;5443366;26;20470;-77
2024/04/17 10:28:24;;;;;;;13.20;9.33;;;7.20;83.00;;;;;;5449894;26;20275;-77
2024/04/17 10:30:53;;;;;;;17.77;9.73;;;7.20;83.10;;;;;;5449772;26;20546;-77
2024/04/17 10:33:29;;;;;;;24.90;9.53;;;7.10;83.00;;;;;;5448509;26;20588;-78
2024/04/17 10:35:56;;;;;;;18.03;9.30;;;7.10;83.60;;;;;;5443006;26;20993;-78
2024/04/17 10:38:24;;;;;;;18.90;11.00;;;7.20;83.40;;;;;;5453091;26;20514;-78
2024/04/17 10:40:53;;;;;;;18.30;10.13;;;7.50;83.60;;;;;;5449004;26;20514;-77
2024/04/17 10:43:19;;;;;;;22.40;11.20;;;7.90;83.80;;;;;;5439873;26;20479;-78
2024/04/17 10:45:45;;;;;;;17.50;9.00;;;8.20;83.40;;;;;;5439778;26;20518;-76
2024/04/17 10:48:15;;;;;;;13.73;9.50;;;8.10;80.30;;;;;;5443816;26;20240;-78
2024/04/17 10:50:42;;;;;;;15.97;8.87;;;8.40;79.90;;;;;;5454426;26;20466;-78
2024/04/17 10:53:09;;;;;;;14.63;9.60;;;8.50;79.60;;;;;;5443410;26;20470;-78
2024/04/17 10:55:35;;;;;;;16.97;9.70;;;8.70;78.70;;;;;;5452459;26;20522;-79
2024/04/17 10:58:02;;;;;;;15.53;8.70;;;8.60;77.60;;;;;;5452430;26;20462;-79
2024/04/17 11:00:29;;;;;;;14.63;9.63;;;8.70;77.10;;;;;;5454667;26;20233;-78
2024/04/17 11:02:54;;;;;;;15.37;8.37;;;8.90;76.80;;;;;;5419021;26;20533;-77
2024/04/17 11:05:24;;;;;;;15.80;8.70;;;8.80;77.00;;;;;;5451738;26;21269;-79
2024/04/17 11:07:52;;;;;;;13.97;9.17;;;8.80;77.10;;;;;;5450132;26;20622;-78
2024/04/17 11:10:18;;;;;;;28.37;10.37;;;8.60;75.80;;;;;;5451287;26;20514;-78
2024/04/17 11:12:44;;;;;;;20.50;9.90;;;8.70;76.80;;;;;;5443128;26;20477;-77
2024/04/17 11:15:10;;;;;;;18.10;11.50;;;8.80;77.40;;;;;;5452413;26;20236;-78
2024/04/17 11:17:35;;;;;;;14.77;8.83;;;8.90;76.50;;;;;;5442410;26;20237;-78
2024/04/17 11:20:02;;;;;;;10.83;7.43;;;9.00;76.40;;;;;;5443841;26;21188;-77
2024/04/17 11:22:28;;;;;;;11.87;7.33;;;9.20;73.20;;;;;;5451721;26;20321;-79
2024/04/17 11:25:02;;;;;;;15.33;7.40;;;9.20;72.10;;;;;;5455646;26;20474;-77
2024/04/17 11:27:28;;;;;;;14.47;7.03;;;9.50;71.60;;;;;;5457538;26;20231;-78
2024/04/17 11:29:53;;;;;;;10.03;5.70;;;9.30;71.70;;;;;;5459896;26;20845;-79
2024/04/17 11:32:19;;;;;;;8.07;4.87;;;9.10;72.40;;;;;;5443112;26;20532;-78
2024/04/17 11:34:45;;;;;;;8.43;4.80;;;8.90;72.30;;;;;;5420315;26;20279;-79
2024/04/17 11:37:12;;;;;;;18.17;10.20;;;8.90;73.70;;;;;;5449503;26;20918;-77
2024/04/17 11:39:39;;;;;;;10.67;6.30;;;8.70;71.00;;;;;;5445885;26;20466;-78
2024/04/17 11:42:07;;;;;;;10.80;5.33;;;8.80;72.10;;;;;;5445852;26;20473;-78
2024/04/17 11:44:39;;;;;;;10.53;5.80;;;9.00;70.80;;;;;;5455601;26;20526;-79
2024/04/17 11:47:09;;;;;;;9.83;4.50;;;9.30;71.70;;;;;;5451296;26;20518;-77
2024/04/17 11:49:35;;;;;;;6.70;4.60;;;9.40;70.10;;;;;;5453043;26;20530;-78
2024/04/17 11:52:04;;;;;;;8.80;5.30;;;9.20;69.20;;;;;;5457281;26;20474;-78
2024/04/17 11:54:29;;;;;;;8.37;5.10;;;9.20;70.20;;;;;;5449958;26;20330;-78
2024/04/17 11:56:55;;;;;;;10.67;5.70;;;9.00;71.70;;;;;;5462850;26;20443;-79
2024/04/17 11:59:21;;;;;;;11.87;5.63;;;9.10;71.60;;;;;;5456051;26;20228;-79
2024/04/17 12:01:46;;;;;;;14.80;4.97;;;9.50;71.30;;;;;;5440901;26;20245;-79
2024/04/17 12:04:12;;;;;;;8.20;5.30;;;9.50;69.90;;;;;;5449283;26;20248;-78
2024/04/17 12:06:37;;;;;;;7.43;5.43;;;9.70;71.00;;;;;;5448476;26;20283;-79
2024/04/17 12:09:03;;;;;;;11.00;5.37;;;9.90;69.10;;;;;;5452807;26;20282;-79
2024/04/17 12:11:29;;;;;;;11.97;6.20;;;10.00;68.90;;;;;;5441120;26;20813;-77
2024/04/17 12:13:55;;;;;;;12.03;5.80;;;10.00;69.40;;;;;;5450936;26;20458;-79
2024/04/17 12:16:20;;;;;;;12.43;5.43;;;10.10;69.20;;;;;;5454400;26;20236;-79
2024/04/17 12:18:46;;;;;;;9.80;4.83;;;9.90;69.20;;;;;;5407031;26;20313;-79
2024/04/17 12:21:12;;;;;;;9.40;5.40;;;10.00;69.40;;;;;;5454420;26;20244;-79
2024/04/17 12:23:37;;;;;;;11.33;5.80;;;9.90;69.70;;;;;;5440442;26;20693;-80
2024/04/17 12:28:56;;;;;;;12.60;5.37;;;9.60;71.10;;;;;;5449496;26;20681;-78
2024/04/17 12:31:23;;;;;;;13.30;4.73;;;9.40;69.70;;;;;;5449460;26;21000;-80
2024/04/17 12:33:49;;;;;;;6.50;4.40;;;9.40;69.40;;;;;;5446577;26;20565;-79
2024/04/17 12:36:15;;;;;;;8.00;3.90;;;9.30;68.00;;;;;;5450961;26;20458;-80
2024/04/17 12:38:40;;;;;;;5.30;3.10;;;9.30;66.70;;;;;;5465511;26;20521;-81
2024/04/17 12:41:06;;;;;;;6.73;3.07;;;9.30;65.00;;;;;;5464604;26;20283;-80
2024/04/17 12:43:32;;;;;;;8.83;2.93;;;9.40;65.30;;;;;;5455183;26;20301;-78
2024/04/17 12:45:57;;;;;;;6.90;3.10;;;9.90;66.60;;;;;;5440980;26;20243;-79
2024/04/17 12:48:23;;;;;;;4.90;2.83;;;10.30;65.00;;;;;;5446878;26;20281;-80
2024/04/17 12:50:51;;;;;;;6.30;3.03;;;10.60;63.40;;;;;;5445267;26;20262;-79